Milan, Kansas
Current Conditions -  °F | °C
As of 12:53 PM on Thursday 18 Dec 2014 (Local Time) from KICT Reporting Station
Haze Haze  
Wind Chill: 30°   Ceiling: 600
Heat Index: 34°   Visibility: 5mi
Dew Point: 31°   Wind: 5mph
Humidity: 89%   Direction: 360°N
Pressure: 30.17"   Gusts: NA
Location:  37.26°N, 97.67°W
Report Text: KICT 181853Z 36004KT 5SM BR OVC006 01/M01 A3017 RMK AO2 SLP228 T00111006
Loading
Personal Weather Stations






























Interactive Weather Map New forecast layout! Learn more

10-Day Weather Forecast

Advertisements
Track Severe Weather on mobile